Briefing drone pour Longvic

Rechercher une autre localisation

Conditions de vol :


Nous sommes le : Vendredi 27 janvier 2023
Il est 02:15 UTC (03:15 LT)

Lever de soleil : 06:45 UTC (07:45 LT)
Coucher de soleil : 16:59 UTC (17:59 LT)

Météo

L'essentiel des conditions de vol

VIGILANCE MÉTÉO FRANCE - Côte-dOr (21)
Vigilance Jaune : Neige-verglas
CARTE TEMSI
CARTES DES FRONTS
METAR de LFSD
LFSD 270200Z AUTO 01007KT 330V040 9999 OVC022 M00/M03 Q1019

Date d'émission: 27/01/2023
Heure d'émission: 02:00 UTC
Vent: 010° (variable du 330° au 040°) pour 7 KT (13 km/h)
Visibilité horizontale: > 10 km
Plafond :
- Couvert à 2200ft (671m)
Température: 0 °C
Point de rosée: -3 °C
Humidité: 80%
Pression (QNH): 1019 hPa
TAF de LFSD
LFSD 010600Z 0100/0124 CNL

Conditions prévues :

Heure d'émission : Bulletin éffectué le 01 à 00:00 UTC
Prévision : Valide du 01 a 00:00 UTC au 01 a 23:59 UTC
Nuages : à 0ft (0 m)
WEBCAM POUR LONGVIC

Réglementation

Voler en sécurité

CARTES AERONAUTIQUE 1/500.000
CARTE AZBA (Reseau basse altitude)
CARTES VAC (LFSD)
SUP AIP




Chargement des AIP...
NOTAM (LONGVIC + Terrain à proximité / FIR )




Chargement des NOTAMS...
CONTACT PREFECTURE 21
Côte-dOr (21) : [email protected]


Avertissement : Les données mises à disposition sont indicatives. Oxygène Drone ne pourra être tenu responsable de dégâts causés aux biens et aux personnes.